createdAt,value
2018-08-30T00:02:07.975Z,4.00
2018-08-30T00:10:41.262Z,3.62
2018-08-30T00:16:25.371Z,3.90
2018-08-30T00:19:23.372Z,4.30
2018-08-30T00:22:09.668Z,3.95
2018-08-30T00:24:37.212Z,4.15
2018-08-30T00:33:06.866Z,3.55
2018-08-30T00:44:32.487Z,3.42
2018-08-30T00:47:20.612Z,3.40
2018-08-30T00:49:48.849Z,3.20
2018-08-30T00:52:19.205Z,3.33
2018-08-30T00:57:48.701Z,3.10
2018-08-30T01:00:16.187Z,3.00
2018-08-30T01:02:45.026Z,2.90
2018-08-30T01:05:13.251Z,2.65
2018-08-30T01:07:40.822Z,2.90
2018-08-30T01:10:08.430Z,2.72
2018-08-30T01:15:44.672Z,2.77
2018-08-30T01:18:12.225Z,3.15
2018-08-30T01:20:39.771Z,2.92
2018-08-30T01:23:07.277Z,3.25
2018-08-30T01:25:34.822Z,3.10
2018-08-30T01:28:02.441Z,3.08
2018-08-30T01:30:52.553Z,3.00
2018-08-30T01:33:20.169Z,2.90
2018-08-30T01:35:48.077Z,3.00
2018-08-30T01:38:15.686Z,3.50
2018-08-30T01:40:43.266Z,3.50
2018-08-30T01:43:10.892Z,3.35
2018-08-30T01:51:55.943Z,3.92
2018-08-30T01:54:46.341Z,4.00
2018-08-30T01:57:27.177Z,4.62
2018-08-30T01:59:54.797Z,4.90
2018-08-30T02:02:22.387Z,5.08
2018-08-30T02:04:57.969Z,4.83
2018-08-30T02:07:25.461Z,4.78
2018-08-30T02:09:52.872Z,4.80
2018-08-30T02:12:28.487Z,4.45
2018-08-30T02:14:56.077Z,4.53
2018-08-30T02:20:25.746Z,4.37
2018-08-30T02:22:56.218Z,4.20
2018-08-30T02:25:23.724Z,4.28
2018-08-30T02:27:51.153Z,3.80
2018-08-30T02:30:18.687Z,4.03
2018-08-30T02:35:50.293Z,3.52
2018-08-30T02:38:32.218Z,3.83
2018-08-30T02:41:00.948Z,3.35
2018-08-30T02:46:34.229Z,3.25
2018-08-30T02:52:07.204Z,3.30
2018-08-30T02:54:34.782Z,3.22
2018-08-30T03:03:08.246Z,3.10
2018-08-30T03:08:28.636Z,4.10
2018-08-30T03:14:02.431Z,3.65
2018-08-30T03:19:55.049Z,4.72
2018-08-30T03:28:32.759Z,3.50
2018-08-30T03:34:05.341Z,3.27
2018-08-30T03:36:33.023Z,3.85
2018-08-30T03:42:13.459Z,4.17
2018-08-30T03:44:41.006Z,4.08
2018-08-30T03:47:08.502Z,4.00
2018-08-30T03:49:45.951Z,3.80
2018-08-30T03:52:13.556Z,3.80
2018-08-30T03:54:41.153Z,3.80
2018-08-30T04:12:23.945Z,5.45
2018-08-30T04:14:57.110Z,5.25
2018-08-30T04:29:21.356Z,6.93
2018-08-30T04:34:22.615Z,6.83
2018-08-30T04:39:53.353Z,7.15
2018-08-30T04:42:20.860Z,7.37
2018-08-30T04:44:48.329Z,7.30
2018-08-30T04:47:15.841Z,6.78
2018-08-30T04:52:54.596Z,6.80
2018-08-30T04:55:31.322Z,8.18
2018-08-30T04:57:58.842Z,8.08
2018-08-30T05:06:22.454Z,7.40
2018-08-30T05:15:14.768Z,8.05
2018-08-30T05:17:50.180Z,8.18
2018-08-30T05:20:17.670Z,9.65
2018-08-30T05:22:45.226Z,8.15
2018-08-30T05:25:14.065Z,7.47
2018-08-30T05:27:41.714Z,7.60
2018-08-30T05:30:09.446Z,7.42
2018-08-30T05:32:37.921Z,7.28
2018-08-30T05:35:05.432Z,7.75
2018-08-30T05:37:33.830Z,6.87
2018-08-30T05:40:10.384Z,7.10
2018-08-30T05:42:38.904Z,6.90
2018-08-30T05:45:06.582Z,7.17
2018-08-30T05:47:36.902Z,7.60
2018-08-30T05:50:05.715Z,7.47
2018-08-30T05:52:33.337Z,7.47
2018-08-30T05:55:01.566Z,7.03
2018-08-30T05:57:29.193Z,7.45
2018-08-30T05:59:56.808Z,7.03
2018-08-30T06:02:24.473Z,6.90
2018-08-30T06:04:51.889Z,6.33
2018-08-30T06:07:19.575Z,6.95
2018-08-30T06:09:46.941Z,7.00
2018-08-30T06:12:14.436Z,7.55
2018-08-30T06:14:42.106Z,7.30
2018-08-30T06:17:09.691Z,6.72
2018-08-30T06:19:37.240Z,7.15
2018-08-30T06:22:04.866Z,7.13
2018-08-30T06:24:32.431Z,8.18
2018-08-30T06:27:00.695Z,7.08
2018-08-30T06:29:28.137Z,6.70
2018-08-30T06:31:55.687Z,7.65
2018-08-30T06:34:23.144Z,7.58
2018-08-30T06:36:50.740Z,7.12
2018-08-30T06:39:18.315Z,7.20
2018-08-30T06:41:45.805Z,6.67
2018-08-30T06:44:13.359Z,6.80
2018-08-30T06:46:40.901Z,7.10
2018-08-30T06:49:08.433Z,7.20
2018-08-30T06:51:35.865Z,6.93
2018-08-30T06:54:03.416Z,7.20
2018-08-30T06:56:31.078Z,7.15
2018-08-30T06:58:58.447Z,7.20
2018-08-30T07:01:26.156Z,6.75
2018-08-30T07:03:53.707Z,7.10
2018-08-30T07:06:21.242Z,8.08
2018-08-30T07:08:48.800Z,6.78
2018-08-30T07:11:16.414Z,7.08
2018-08-30T07:13:43.855Z,6.92
2018-08-30T07:16:11.479Z,6.60
2018-08-30T07:18:38.964Z,7.12
2018-08-30T07:21:06.420Z,7.00
2018-08-30T07:23:33.970Z,7.08
2018-08-30T07:26:01.581Z,7.40
2018-08-30T07:28:29.112Z,6.92
2018-08-30T07:30:56.588Z,6.67
2018-08-30T07:33:24.087Z,7.42
2018-08-30T07:35:51.772Z,7.30
2018-08-30T07:38:19.272Z,8.38
2018-08-30T07:40:46.828Z,7.28
2018-08-30T07:43:14.236Z,6.87
2018-08-30T07:45:41.829Z,7.05
2018-08-30T07:48:09.439Z,6.33
2018-08-30T07:50:36.893Z,6.57
2018-08-30T07:53:04.412Z,7.07
2018-08-30T07:55:31.866Z,6.85
2018-08-30T07:57:59.360Z,6.40
2018-08-30T08:00:26.884Z,6.40
2018-08-30T08:02:54.903Z,6.87
2018-08-30T08:05:22.685Z,6.37
2018-08-30T08:07:50.282Z,6.37
2018-08-30T08:10:17.731Z,6.40
2018-08-30T08:12:45.369Z,6.15
2018-08-30T08:15:12.731Z,6.03
2018-08-30T08:17:40.267Z,6.37
2018-08-30T08:20:07.762Z,5.97
2018-08-30T08:22:35.217Z,5.80
2018-08-30T08:25:02.651Z,6.42
2018-08-30T08:27:30.148Z,6.20
2018-08-30T08:29:57.695Z,6.10
2018-08-30T08:32:25.192Z,6.87
2018-08-30T08:34:52.673Z,7.70
2018-08-30T08:37:20.162Z,5.60
2018-08-30T08:39:47.679Z,6.00
2018-08-30T08:42:15.259Z,5.60
2018-08-30T08:44:42.732Z,6.27
2018-08-30T08:47:10.212Z,6.47
2018-08-30T08:49:37.823Z,5.97
2018-08-30T08:52:05.512Z,6.05
2018-08-30T08:54:33.160Z,5.83
2018-08-30T08:57:00.665Z,6.20
2018-08-30T08:59:28.068Z,5.85
2018-08-30T09:01:55.791Z,6.25
2018-08-30T09:04:23.241Z,6.03
2018-08-30T09:06:50.795Z,7.28
2018-08-30T09:09:18.246Z,6.60
2018-08-30T09:11:45.802Z,6.07
2018-08-30T09:14:13.286Z,5.87
2018-08-30T09:16:40.872Z,5.92
2018-08-30T09:19:08.307Z,6.20
2018-08-30T09:21:35.843Z,6.33
2018-08-30T09:24:03.464Z,6.33
2018-08-30T09:26:30.944Z,5.83
2018-08-30T09:28:58.413Z,6.17
2018-08-30T09:31:25.957Z,6.50
2018-08-30T09:33:53.473Z,6.62
2018-08-30T09:36:21.433Z,6.37
2018-08-30T09:38:48.876Z,5.72
2018-08-30T09:41:16.564Z,5.73
2018-08-30T09:43:44.245Z,5.80
2018-08-30T09:46:11.780Z,6.75
2018-08-30T09:48:39.278Z,6.58
2018-08-30T09:51:06.819Z,6.90
2018-08-30T09:53:34.270Z,6.20
2018-08-30T09:56:02.214Z,8.08
2018-08-30T09:58:29.668Z,5.92
2018-08-30T10:01:03.229Z,6.30
2018-08-30T10:03:30.850Z,6.08
2018-08-30T10:05:58.351Z,6.67
2018-08-30T10:08:26.743Z,6.20
2018-08-30T10:10:55.486Z,6.10
2018-08-30T10:13:23.018Z,6.62
2018-08-30T10:15:50.604Z,6.80
2018-08-30T10:18:18.045Z,7.65
2018-08-30T10:20:45.587Z,6.83
2018-08-30T10:23:13.025Z,6.83
2018-08-30T10:25:40.640Z,6.67
2018-08-30T10:28:08.138Z,6.80
2018-08-30T10:30:35.539Z,6.87
2018-08-30T10:33:03.083Z,7.10
2018-08-30T10:35:30.610Z,7.60
2018-08-30T10:37:58.176Z,7.00
2018-08-30T10:40:25.651Z,7.00
2018-08-30T10:43:06.117Z,7.30
2018-08-30T10:45:34.003Z,7.50
2018-08-30T10:48:01.533Z,7.60
2018-08-30T10:53:39.572Z,8.08
2018-08-30T10:56:09.542Z,7.65
2018-08-30T11:01:26.263Z,7.78
2018-08-30T11:04:12.668Z,8.10
2018-08-30T11:06:44.132Z,8.10
2018-08-30T11:09:11.664Z,8.48
2018-08-30T11:11:39.211Z,8.20
2018-08-30T11:14:06.704Z,8.50
2018-08-30T11:16:34.137Z,9.03
2018-08-30T11:19:01.764Z,8.95
2018-08-30T11:21:29.142Z,8.85
2018-08-30T11:23:56.573Z,8.70
2018-08-30T11:26:34.990Z,8.55
2018-08-30T11:29:02.738Z,9.25
2018-08-30T11:31:30.200Z,9.43
2018-08-30T11:33:57.627Z,10.20
2018-08-30T11:36:25.173Z,8.48
2018-08-30T11:38:52.719Z,9.03
2018-08-30T11:41:20.210Z,8.85
2018-08-30T11:43:51.813Z,8.40
2018-08-30T11:46:36.899Z,8.88
2018-08-30T11:49:04.466Z,8.80
2018-08-30T11:51:31.970Z,7.90
2018-08-30T11:53:59.360Z,8.60
2018-08-30T11:56:26.817Z,8.58
2018-08-30T11:58:54.303Z,8.00
2018-08-30T12:01:21.776Z,8.70
2018-08-30T12:03:49.414Z,8.50
2018-08-30T12:06:16.911Z,8.28
2018-08-30T12:08:44.388Z,8.10
2018-08-30T12:11:12.060Z,8.00
2018-08-30T12:13:39.552Z,8.00
2018-08-30T12:16:06.925Z,7.83
2018-08-30T12:18:34.503Z,8.00
2018-08-30T12:21:02.322Z,7.70
2018-08-30T12:23:30.011Z,6.97
2018-08-30T12:25:57.540Z,11.90
2018-08-30T12:28:26.002Z,7.10
2018-08-30T12:30:54.881Z,7.25
2018-08-30T12:33:22.419Z,7.83
2018-08-30T12:35:50.865Z,8.43
2018-08-30T12:38:18.125Z,8.43
2018-08-30T12:40:51.191Z,8.15
2018-08-30T12:43:18.684Z,8.50
2018-08-30T12:45:46.106Z,8.55
2018-08-30T12:48:13.586Z,7.97
2018-08-30T12:50:41.166Z,7.40
2018-08-30T12:53:08.940Z,7.80
2018-08-30T12:55:36.620Z,8.43
2018-08-30T12:58:04.881Z,8.10
2018-08-30T13:00:32.259Z,8.28
2018-08-30T13:02:59.700Z,13.20
2018-08-30T13:05:27.367Z,16.15
2018-08-30T13:07:54.602Z,7.78
2018-08-30T13:10:22.172Z,7.90
2018-08-30T13:12:49.623Z,8.35
2018-08-30T13:15:17.283Z,8.10
2018-08-30T13:17:44.639Z,7.78
2018-08-30T13:20:11.973Z,7.45
2018-08-30T13:22:39.751Z,8.00
2018-08-30T13:25:07.025Z,7.60
2018-08-30T13:27:34.388Z,8.03
2018-08-30T13:30:02.001Z,8.18
2018-08-30T13:32:29.579Z,7.33
2018-08-30T13:34:57.183Z,7.78
2018-08-30T13:37:24.594Z,7.30
2018-08-30T13:39:52.542Z,7.10
2018-08-30T13:42:19.885Z,7.87
2018-08-30T13:44:47.471Z,8.43
2018-08-30T13:47:21.822Z,8.90
2018-08-30T13:52:24.950Z,10.20
2018-08-30T13:54:52.416Z,10.75
2018-08-30T13:57:20.247Z,10.58
2018-08-30T13:59:47.869Z,11.00
2018-08-30T14:02:15.044Z,10.65
2018-08-30T14:04:42.292Z,10.13
2018-08-30T14:07:09.861Z,9.68
2018-08-30T14:09:37.740Z,9.48
2018-08-30T14:12:05.542Z,8.65
2018-08-30T14:14:42.826Z,8.75
2018-08-30T14:17:10.494Z,8.90
2018-08-30T14:19:38.485Z,9.18
2018-08-30T14:22:06.670Z,8.48
2018-08-30T14:24:35.560Z,8.37
2018-08-30T14:27:05.649Z,8.73
2018-08-30T14:29:33.247Z,8.38
2018-08-30T14:32:02.533Z,8.43
2018-08-30T14:34:37.639Z,8.43
2018-08-30T14:37:05.993Z,8.05
2018-08-30T14:39:33.396Z,8.83
2018-08-30T14:42:03.010Z,8.70
2018-08-30T14:44:30.692Z,8.20
2018-08-30T14:46:57.957Z,7.58
2018-08-30T14:49:25.425Z,7.55
2018-08-30T14:51:52.933Z,7.33
2018-08-30T14:54:20.499Z,7.10
2018-08-30T14:56:48.445Z,7.37
2018-08-30T14:59:15.843Z,7.65
2018-08-30T15:01:43.197Z,6.92
2018-08-30T15:04:10.806Z,7.35
2018-08-30T15:06:38.261Z,6.70
2018-08-30T15:09:06.783Z,6.67
2018-08-30T15:11:34.291Z,6.53
2018-08-30T15:14:01.823Z,7.05
2018-08-30T15:16:29.290Z,6.55
2018-08-30T15:18:56.711Z,6.67
2018-08-30T15:21:24.314Z,6.83
2018-08-30T15:23:51.724Z,6.58
2018-08-30T15:26:19.264Z,7.55
2018-08-30T15:28:46.735Z,6.90
2018-08-30T15:31:14.209Z,7.17
2018-08-30T15:33:41.677Z,7.60
2018-08-30T15:36:09.166Z,7.70
2018-08-30T15:38:36.719Z,7.33
2018-08-30T15:41:04.310Z,7.25
2018-08-30T15:43:31.653Z,7.15
2018-08-30T15:45:59.155Z,6.72
2018-08-30T15:48:26.685Z,6.95
2018-08-30T15:50:56.418Z,7.40
2018-08-30T15:53:24.005Z,7.33
2018-08-30T15:55:51.585Z,7.00
2018-08-30T15:58:18.971Z,7.10
2018-08-30T16:00:46.404Z,7.20
2018-08-30T16:03:13.860Z,7.07
2018-08-30T16:05:41.595Z,8.10
2018-08-30T16:08:09.106Z,8.60
2018-08-30T16:10:36.586Z,10.10
2018-08-30T16:13:04.240Z,9.55
2018-08-30T16:15:31.769Z,9.55
2018-08-30T16:17:59.294Z,9.18
2018-08-30T16:20:26.801Z,9.60
2018-08-30T16:23:03.151Z,9.00
2018-08-30T16:25:30.686Z,9.85
2018-08-30T16:27:59.161Z,9.88
2018-08-30T16:30:27.344Z,9.85
2018-08-30T16:32:54.813Z,10.23
2018-08-30T16:35:22.469Z,10.10
2018-08-30T16:37:49.835Z,10.45
2018-08-30T16:40:17.355Z,11.93
2018-08-30T16:42:44.888Z,12.82
2018-08-30T16:45:12.391Z,12.15
2018-08-30T16:47:40.243Z,13.22
2018-08-30T16:50:07.665Z,13.60
2018-08-30T16:52:35.288Z,13.47
2018-08-30T16:55:02.845Z,18.12
2018-08-30T16:57:30.244Z,15.03
2018-08-30T16:59:57.722Z,13.88
2018-08-30T17:02:25.376Z,12.33
2018-08-30T17:04:52.695Z,11.50
2018-08-30T17:07:20.295Z,12.00
2018-08-30T17:09:47.803Z,11.12
2018-08-30T17:12:15.373Z,11.30
2018-08-30T17:14:42.978Z,11.12
2018-08-30T17:17:10.857Z,11.05
2018-08-30T17:19:38.261Z,11.75
2018-08-30T17:22:05.795Z,11.85
2018-08-30T17:24:33.416Z,11.95
2018-08-30T17:27:00.937Z,11.23
2018-08-30T17:29:28.386Z,11.22
2018-08-30T17:31:55.966Z,11.12
2018-08-30T17:34:23.491Z,11.43
2018-08-30T17:36:50.929Z,10.98
2018-08-30T17:39:18.454Z,11.35
2018-08-30T17:41:45.877Z,11.05
2018-08-30T17:44:13.377Z,11.08
2018-08-30T17:46:40.901Z,11.53
2018-08-30T17:49:08.406Z,12.35
2018-08-30T17:51:36.050Z,11.50
2018-08-30T17:54:03.527Z,11.22
2018-08-30T17:56:31.008Z,10.68
2018-08-30T17:58:58.617Z,10.63
2018-08-30T18:01:26.321Z,11.40
2018-08-30T18:03:53.739Z,10.77
2018-08-30T18:06:21.219Z,10.93
2018-08-30T18:08:48.745Z,10.85
2018-08-30T18:11:16.252Z,11.22
2018-08-30T18:13:43.727Z,11.12
2018-08-30T18:16:11.290Z,11.30
2018-08-30T18:18:38.866Z,11.00
2018-08-30T18:21:06.379Z,10.88
2018-08-30T18:23:33.867Z,10.78
2018-08-30T18:26:01.335Z,11.50
2018-08-30T18:28:28.836Z,11.22
2018-08-30T18:30:56.320Z,11.70
2018-08-30T18:33:23.822Z,11.35
2018-08-30T18:35:51.337Z,12.33
2018-08-30T18:38:18.931Z,11.48
2018-08-30T18:40:46.438Z,12.35
2018-08-30T18:43:13.831Z,12.47
2018-08-30T18:45:41.232Z,13.93
2018-08-30T18:48:08.673Z,14.50
2018-08-30T18:50:36.047Z,13.30
2018-08-30T18:53:03.513Z,12.78
2018-08-30T18:55:31.073Z,13.72
2018-08-30T18:57:58.591Z,13.55
2018-08-30T19:00:26.015Z,13.38
2018-08-30T19:02:53.542Z,12.30
2018-08-30T19:05:21.041Z,12.63
2018-08-30T19:07:48.658Z,13.53
2018-08-30T19:10:16.190Z,13.48
2018-08-30T19:12:43.685Z,12.78
2018-08-30T19:15:16.835Z,13.45
2018-08-30T19:17:49.796Z,13.67
2018-08-30T19:20:17.238Z,13.22
2018-08-30T19:22:44.824Z,12.65
2018-08-30T19:25:12.805Z,13.13
2018-08-30T19:27:40.380Z,13.50
2018-08-30T19:30:13.537Z,12.58
2018-08-30T19:32:41.016Z,12.70
2018-08-30T19:35:14.109Z,13.28
2018-08-30T19:37:41.552Z,13.50
2018-08-30T19:40:13.611Z,13.05
2018-08-30T19:42:41.097Z,13.60
2018-08-30T19:45:08.537Z,13.88
2018-08-30T19:47:36.060Z,13.38
2018-08-30T19:50:03.667Z,13.18
2018-08-30T19:52:31.189Z,13.32
2018-08-30T19:54:58.785Z,13.85
2018-08-30T19:57:26.182Z,12.95
2018-08-30T19:59:53.612Z,13.53
2018-08-30T20:02:21.345Z,13.43
2018-08-30T20:04:48.702Z,13.48
2018-08-30T20:07:16.167Z,13.38
2018-08-30T20:09:43.774Z,13.30
2018-08-30T20:12:11.598Z,13.18
2018-08-30T20:14:39.025Z,13.38
2018-08-30T20:17:06.530Z,13.53
2018-08-30T20:19:34.036Z,13.10
2018-08-30T20:22:01.593Z,14.60
2018-08-30T20:24:29.215Z,14.20
2018-08-30T20:26:56.954Z,15.00
2018-08-30T20:29:24.405Z,13.40
2018-08-30T20:31:52.014Z,14.43
2018-08-30T20:34:19.548Z,14.13
2018-08-30T20:36:47.113Z,14.43
2018-08-30T20:39:14.722Z,14.25
2018-08-30T20:41:42.340Z,14.53
2018-08-30T20:44:09.815Z,14.25
2018-08-30T20:46:37.404Z,14.20
2018-08-30T20:49:05.143Z,14.93
2018-08-30T20:51:32.459Z,14.45
2018-08-30T20:53:59.925Z,13.32
2018-08-30T20:56:27.435Z,14.03
2018-08-30T20:58:54.946Z,14.10
2018-08-30T21:01:22.485Z,13.48
2018-08-30T21:03:50.104Z,14.03
2018-08-30T21:06:17.561Z,14.23
2018-08-30T21:08:44.987Z,14.00
2018-08-30T21:11:12.479Z,14.10
2018-08-30T21:13:39.954Z,15.17
2018-08-30T21:16:07.476Z,15.27
2018-08-30T21:18:35.028Z,14.87
2018-08-30T21:21:02.642Z,14.58
2018-08-30T21:23:30.046Z,14.47
2018-08-30T21:25:57.430Z,15.03
2018-08-30T21:28:24.759Z,15.05
2018-08-30T21:30:52.517Z,15.80
2018-08-30T21:33:19.953Z,15.32
2018-08-30T21:35:47.564Z,15.35
2018-08-30T21:38:15.223Z,15.65
2018-08-30T21:40:42.640Z,14.80
2018-08-30T21:43:10.268Z,14.78
2018-08-30T21:45:37.773Z,16.35
2018-08-30T21:48:05.541Z,17.65
2018-08-30T21:50:33.081Z,16.05
2018-08-30T21:53:00.557Z,15.60
2018-08-30T21:55:28.038Z,15.15
2018-08-30T21:57:55.523Z,13.62
2018-08-30T22:00:29.674Z,12.90
2018-08-30T22:02:57.112Z,12.50
2018-08-30T22:05:24.640Z,12.68
2018-08-30T22:07:52.092Z,11.40
2018-08-30T22:10:19.482Z,11.15
2018-08-30T22:12:47.014Z,12.43
2018-08-30T22:15:14.562Z,11.57
2018-08-30T22:17:41.982Z,11.33
2018-08-30T22:20:09.512Z,11.57
2018-08-30T22:22:36.987Z,11.33
2018-08-30T22:25:04.485Z,11.15
2018-08-30T22:27:32.083Z,11.33
2018-08-30T22:29:59.574Z,11.80
2018-08-30T22:32:27.172Z,11.43
2018-08-30T22:34:54.786Z,10.78
2018-08-30T22:37:22.300Z,10.53
2018-08-30T22:39:49.953Z,9.40
2018-08-30T22:42:17.513Z,9.25
2018-08-30T22:44:45.053Z,8.83
2018-08-30T22:47:12.555Z,8.98
2018-08-30T22:49:39.995Z,8.08
2018-08-30T22:52:07.469Z,8.48
2018-08-30T22:54:34.941Z,8.75
2018-08-30T22:57:02.449Z,8.95
2018-08-30T22:59:29.977Z,6.72
2018-08-30T23:01:57.436Z,7.70
2018-08-30T23:04:24.969Z,7.58
2018-08-30T23:06:52.491Z,7.90
2018-08-30T23:09:19.975Z,7.53
2018-08-30T23:11:47.453Z,7.45
2018-08-30T23:14:14.816Z,7.92
2018-08-30T23:16:42.270Z,7.85
2018-08-30T23:19:09.642Z,7.22
2018-08-30T23:21:37.063Z,7.97
2018-08-30T23:24:05.123Z,7.55
2018-08-30T23:26:32.588Z,6.45
2018-08-30T23:29:00.018Z,6.12
2018-08-30T23:31:27.445Z,10.95
2018-08-30T23:33:54.961Z,7.17
2018-08-30T23:36:22.388Z,6.22
2018-08-30T23:38:49.938Z,7.03
2018-08-30T23:41:17.368Z,7.08
2018-08-30T23:43:44.972Z,6.35
2018-08-30T23:46:12.479Z,6.17
2018-08-30T23:48:40.039Z,6.40
2018-08-30T23:51:07.549Z,5.45
2018-08-30T23:53:34.952Z,5.60
2018-08-30T23:56:02.568Z,6.08
2018-08-30T23:58:41.340Z,5.03
